sensor_id;sensor_type;location;lat;lon;timestamp;P1;durP1;ratioP1;P2;durP2;ratioP2
16624;SDS011;8426;48.496;9.098;2023-03-14T00:01:00;0.60;;;0.40;;
16624;SDS011;8426;48.496;9.098;2023-03-14T00:06:17;0.55;;;0.40;;
16624;SDS011;8426;48.496;9.098;2023-03-14T00:11:25;0.52;;;0.20;;
16624;SDS011;8426;48.496;9.098;2023-03-14T00:16:28;0.40;;;0.25;;
16624;SDS011;8426;48.496;9.098;2023-03-14T00:21:33;0.20;;;0.20;;
16624;SDS011;8426;48.496;9.098;2023-03-14T00:26:39;0.20;;;0.20;;
16624;SDS011;8426;48.496;9.098;2023-03-14T00:31:44;0.20;;;0.20;;
16624;SDS011;8426;48.496;9.098;2023-03-14T00:36:47;0.20;;;0.20;;
16624;SDS011;8426;48.496;9.098;2023-03-14T00:41:52;0.20;;;0.20;;
16624;SDS011;8426;48.496;9.098;2023-03-14T00:46:55;0.20;;;0.20;;
16624;SDS011;8426;48.496;9.098;2023-03-14T00:51:59;0.77;;;0.30;;
16624;SDS011;8426;48.496;9.098;2023-03-14T01:02:38;0.30;;;0.30;;
16624;SDS011;8426;48.496;9.098;2023-03-14T01:07:41;0.20;;;0.20;;
16624;SDS011;8426;48.496;9.098;2023-03-14T01:12:47;0.60;;;0.30;;
16624;SDS011;8426;48.496;9.098;2023-03-14T01:17:53;0.57;;;0.30;;
16624;SDS011;8426;48.496;9.098;2023-03-14T01:23:03;1.20;;;0.22;;
16624;SDS011;8426;48.496;9.098;2023-03-14T01:28:09;0.75;;;0.30;;
16624;SDS011;8426;48.496;9.098;2023-03-14T01:33:12;0.20;;;0.20;;
16624;SDS011;8426;48.496;9.098;2023-03-14T01:44:01;0.70;;;0.20;;
16624;SDS011;8426;48.496;9.098;2023-03-14T01:49:24;0.82;;;0.20;;
16624;SDS011;8426;48.496;9.098;2023-03-14T01:54:32;0.22;;;0.20;;
16624;SDS011;8426;48.496;9.098;2023-03-14T01:59:40;0.20;;;0.20;;
16624;SDS011;8426;48.496;9.098;2023-03-14T02:10:22;0.30;;;0.22;;
16624;SDS011;8426;48.496;9.098;2023-03-14T02:15:29;0.73;;;0.20;;
16624;SDS011;8426;48.496;9.098;2023-03-14T02:20:34;2.67;;;0.28;;
16624;SDS011;8426;48.496;9.098;2023-03-14T02:25:47;1.85;;;0.25;;
16624;SDS011;8426;48.496;9.098;2023-03-14T02:30:57;0.20;;;0.20;;
16624;SDS011;8426;48.496;9.098;2023-03-14T02:36:03;0.65;;;0.40;;
16624;SDS011;8426;48.496;9.098;2023-03-14T02:41:17;0.40;;;0.40;;
16624;SDS011;8426;48.496;9.098;2023-03-14T02:46:22;0.22;;;0.20;;
16624;SDS011;8426;48.496;9.098;2023-03-14T02:51:25;0.50;;;0.30;;
16624;SDS011;8426;48.496;9.098;2023-03-14T02:56:38;1.92;;;0.50;;
16624;SDS011;8426;48.496;9.098;2023-03-14T03:01:45;1.20;;;0.40;;
16624;SDS011;8426;48.496;9.098;2023-03-14T03:06:48;0.80;;;0.40;;
16624;SDS011;8426;48.496;9.098;2023-03-14T03:11:54;0.38;;;0.30;;
16624;SDS011;8426;48.496;9.098;2023-03-14T03:16:59;1.95;;;0.30;;
16624;SDS011;8426;48.496;9.098;2023-03-14T03:22:02;0.80;;;0.32;;
16624;SDS011;8426;48.496;9.098;2023-03-14T03:27:08;0.32;;;0.32;;
16624;SDS011;8426;48.496;9.098;2023-03-14T03:32:12;0.40;;;0.30;;
16624;SDS011;8426;48.496;9.098;2023-03-14T03:37:16;0.40;;;0.40;;
16624;SDS011;8426;48.496;9.098;2023-03-14T03:42:25;1.63;;;0.52;;
16624;SDS011;8426;48.496;9.098;2023-03-14T03:47:31;2.22;;;0.40;;
16624;SDS011;8426;48.496;9.098;2023-03-14T03:52:36;3.03;;;0.40;;
16624;SDS011;8426;48.496;9.098;2023-03-14T03:57:39;2.30;;;0.50;;
16624;SDS011;8426;48.496;9.098;2023-03-14T04:02:45;0.30;;;0.20;;
16624;SDS011;8426;48.496;9.098;2023-03-14T04:07:57;0.63;;;0.43;;
16624;SDS011;8426;48.496;9.098;2023-03-14T04:13:07;1.52;;;0.40;;
16624;SDS011;8426;48.496;9.098;2023-03-14T04:18:12;1.45;;;0.82;;
16624;SDS011;8426;48.496;9.098;2023-03-14T04:23:18;0.75;;;0.32;;
16624;SDS011;8426;48.496;9.098;2023-03-14T04:28:21;1.90;;;0.45;;
16624;SDS011;8426;48.496;9.098;2023-03-14T04:33:32;1.55;;;0.75;;
16624;SDS011;8426;48.496;9.098;2023-03-14T04:38:44;1.45;;;0.55;;
16624;SDS011;8426;48.496;9.098;2023-03-14T04:48:59;0.47;;;0.40;;
16624;SDS011;8426;48.496;9.098;2023-03-14T04:54:04;1.45;;;0.55;;
16624;SDS011;8426;48.496;9.098;2023-03-14T04:59:10;3.05;;;0.25;;
16624;SDS011;8426;48.496;9.098;2023-03-14T05:04:17;3.45;;;0.57;;
16624;SDS011;8426;48.496;9.098;2023-03-14T05:09:20;3.45;;;0.40;;
16624;SDS011;8426;48.496;9.098;2023-03-14T05:14:23;3.05;;;0.70;;
16624;SDS011;8426;48.496;9.098;2023-03-14T05:19:28;2.08;;;0.60;;
16624;SDS011;8426;48.496;9.098;2023-03-14T05:24:31;4.15;;;0.57;;
16624;SDS011;8426;48.496;9.098;2023-03-14T05:29:35;3.63;;;0.52;;
16624;SDS011;8426;48.496;9.098;2023-03-14T05:34:39;1.52;;;0.70;;
16624;SDS011;8426;48.496;9.098;2023-03-14T05:39:46;2.45;;;0.60;;
16624;SDS011;8426;48.496;9.098;2023-03-14T05:44:49;1.63;;;0.50;;
16624;SDS011;8426;48.496;9.098;2023-03-14T05:49:58;1.60;;;0.32;;
16624;SDS011;8426;48.496;9.098;2023-03-14T05:55:04;0.50;;;0.30;;
16624;SDS011;8426;48.496;9.098;2023-03-14T06:05:22;5.80;;;0.52;;
16624;SDS011;8426;48.496;9.098;2023-03-14T06:10:37;2.05;;;0.47;;
16624;SDS011;8426;48.496;9.098;2023-03-14T06:15:41;0.85;;;0.47;;
16624;SDS011;8426;48.496;9.098;2023-03-14T06:20:45;6.32;;;0.63;;
16624;SDS011;8426;48.496;9.098;2023-03-14T06:25:52;0.70;;;0.32;;
16624;SDS011;8426;48.496;9.098;2023-03-14T06:31:00;1.85;;;0.30;;
16624;SDS011;8426;48.496;9.098;2023-03-14T06:36:08;0.85;;;0.35;;
16624;SDS011;8426;48.496;9.098;2023-03-14T06:41:19;0.85;;;0.40;;
16624;SDS011;8426;48.496;9.098;2023-03-14T06:46:25;1.15;;;0.30;;
16624;SDS011;8426;48.496;9.098;2023-03-14T06:51:30;1.70;;;0.60;;
16624;SDS011;8426;48.496;9.098;2023-03-14T06:56:36;0.85;;;0.32;;
16624;SDS011;8426;48.496;9.098;2023-03-14T07:01:39;0.95;;;0.30;;
16624;SDS011;8426;48.496;9.098;2023-03-14T07:06:49;0.20;;;0.20;;
16624;SDS011;8426;48.496;9.098;2023-03-14T07:11:52;1.88;;;0.20;;
16624;SDS011;8426;48.496;9.098;2023-03-14T07:16:57;1.42;;;0.30;;
16624;SDS011;8426;48.496;9.098;2023-03-14T07:22:03;1.10;;;0.30;;
16624;SDS011;8426;48.496;9.098;2023-03-14T07:27:08;0.80;;;0.30;;
16624;SDS011;8426;48.496;9.098;2023-03-14T07:32:12;0.80;;;0.30;;
16624;SDS011;8426;48.496;9.098;2023-03-14T07:37:19;0.25;;;0.20;;
16624;SDS011;8426;48.496;9.098;2023-03-14T07:42:23;0.15;;;0.15;;
16624;SDS011;8426;48.496;9.098;2023-03-14T07:47:28;1.80;;;0.22;;
16624;SDS011;8426;48.496;9.098;2023-03-14T07:52:32;0.73;;;0.30;;
16624;SDS011;8426;48.496;9.098;2023-03-14T07:57:38;0.45;;;0.20;;
16624;SDS011;8426;48.496;9.098;2023-03-14T08:02:43;1.05;;;0.32;;
16624;SDS011;8426;48.496;9.098;2023-03-14T08:07:48;1.63;;;0.40;;
16624;SDS011;8426;48.496;9.098;2023-03-14T08:12:53;3.25;;;0.30;;
16624;SDS011;8426;48.496;9.098;2023-03-14T08:17:58;3.13;;;0.40;;
16624;SDS011;8426;48.496;9.098;2023-03-14T08:23:04;1.63;;;0.38;;
16624;SDS011;8426;48.496;9.098;2023-03-14T08:28:08;0.55;;;0.20;;
16624;SDS011;8426;48.496;9.098;2023-03-14T08:33:14;1.83;;;0.47;;
16624;SDS011;8426;48.496;9.098;2023-03-14T08:38:22;0.43;;;0.30;;
16624;SDS011;8426;48.496;9.098;2023-03-14T08:43:29;3.67;;;0.50;;
16624;SDS011;8426;48.496;9.098;2023-03-14T08:48:36;0.57;;;0.20;;
16624;SDS011;8426;48.496;9.098;2023-03-14T08:53:43;3.40;;;0.32;;
16624;SDS011;8426;48.496;9.098;2023-03-14T08:58:48;0.15;;;0.15;;
16624;SDS011;8426;48.496;9.098;2023-03-14T09:03:55;1.98;;;0.25;;
16624;SDS011;8426;48.496;9.098;2023-03-14T09:09:00;1.02;;;0.30;;
16624;SDS011;8426;48.496;9.098;2023-03-14T09:14:05;0.38;;;0.20;;
16624;SDS011;8426;48.496;9.098;2023-03-14T09:24:26;1.88;;;0.43;;
16624;SDS011;8426;48.496;9.098;2023-03-14T09:29:30;0.52;;;0.30;;
16624;SDS011;8426;48.496;9.098;2023-03-14T09:34:33;1.58;;;0.32;;
16624;SDS011;8426;48.496;9.098;2023-03-14T09:39:38;0.32;;;0.28;;
16624;SDS011;8426;48.496;9.098;2023-03-14T09:44:53;1.33;;;0.40;;
16624;SDS011;8426;48.496;9.098;2023-03-14T09:55:20;0.20;;;0.20;;
16624;SDS011;8426;48.496;9.098;2023-03-14T10:00:25;0.52;;;0.20;;
16624;SDS011;8426;48.496;9.098;2023-03-14T10:05:33;0.20;;;0.20;;
16624;SDS011;8426;48.496;9.098;2023-03-14T10:10:42;0.65;;;0.20;;
16624;SDS011;8426;48.496;9.098;2023-03-14T10:15:48;0.20;;;0.20;;
16624;SDS011;8426;48.496;9.098;2023-03-14T10:21:16;1.58;;;0.30;;
16624;SDS011;8426;48.496;9.098;2023-03-14T10:26:26;0.28;;;0.20;;
16624;SDS011;8426;48.496;9.098;2023-03-14T10:31:46;0.30;;;0.30;;
16624;SDS011;8426;48.496;9.098;2023-03-14T10:42:24;1.55;;;0.30;;
16624;SDS011;8426;48.496;9.098;2023-03-14T10:47:31;2.03;;;0.30;;
16624;SDS011;8426;48.496;9.098;2023-03-14T10:52:35;0.20;;;0.20;;
16624;SDS011;8426;48.496;9.098;2023-03-14T10:58:09;0.30;;;0.20;;
16624;SDS011;8426;48.496;9.098;2023-03-14T11:03:21;0.30;;;0.28;;
16624;SDS011;8426;48.496;9.098;2023-03-14T11:08:31;0.57;;;0.20;;
16624;SDS011;8426;48.496;9.098;2023-03-14T11:13:50;0.20;;;0.20;;
16624;SDS011;8426;48.496;9.098;2023-03-14T11:19:14;1.45;;;0.20;;
16624;SDS011;8426;48.496;9.098;2023-03-14T11:24:33;0.85;;;0.30;;
16624;SDS011;8426;48.496;9.098;2023-03-14T11:29:54;0.47;;;0.20;;
16624;SDS011;8426;48.496;9.098;2023-03-14T11:35:01;1.08;;;0.20;;
16624;SDS011;8426;48.496;9.098;2023-03-14T11:40:13;0.20;;;0.17;;
16624;SDS011;8426;48.496;9.098;2023-03-14T11:45:21;0.20;;;0.20;;
16624;SDS011;8426;48.496;9.098;2023-03-14T11:50:44;0.13;;;0.13;;
16624;SDS011;8426;48.496;9.098;2023-03-14T11:55:53;1.45;;;0.20;;
16624;SDS011;8426;48.496;9.098;2023-03-14T12:01:01;0.20;;;0.20;;
16624;SDS011;8426;48.496;9.098;2023-03-14T12:06:13;0.40;;;0.20;;
16624;SDS011;8426;48.496;9.098;2023-03-14T12:11:31;0.60;;;0.22;;
16624;SDS011;8426;48.496;9.098;2023-03-14T12:16:47;0.28;;;0.20;;
16624;SDS011;8426;48.496;9.098;2023-03-14T12:21:51;0.20;;;0.20;;
16624;SDS011;8426;48.496;9.098;2023-03-14T12:26:58;0.55;;;0.28;;
16624;SDS011;8426;48.496;9.098;2023-03-14T12:32:20;2.08;;;0.20;;
16624;SDS011;8426;48.496;9.098;2023-03-14T12:37:45;0.52;;;0.20;;
16624;SDS011;8426;48.496;9.098;2023-03-14T12:42:57;0.60;;;0.30;;
16624;SDS011;8426;48.496;9.098;2023-03-14T12:48:14;1.27;;;0.30;;
16624;SDS011;8426;48.496;9.098;2023-03-14T12:53:33;0.25;;;0.25;;
16624;SDS011;8426;48.496;9.098;2023-03-14T12:59:05;0.30;;;0.30;;
16624;SDS011;8426;48.496;9.098;2023-03-14T13:04:33;0.32;;;0.30;;
16624;SDS011;8426;48.496;9.098;2023-03-14T13:15:11;0.63;;;0.22;;
16624;SDS011;8426;48.496;9.098;2023-03-14T13:20:24;0.40;;;0.30;;
16624;SDS011;8426;48.496;9.098;2023-03-14T13:25:38;3.33;;;0.40;;
16624;SDS011;8426;48.496;9.098;2023-03-14T13:30:46;1.95;;;0.35;;
16624;SDS011;8426;48.496;9.098;2023-03-14T13:35:59;4.78;;;0.40;;
16624;SDS011;8426;48.496;9.098;2023-03-14T13:41:10;1.27;;;0.40;;
16624;SDS011;8426;48.496;9.098;2023-03-14T13:46:16;1.80;;;0.40;;
16624;SDS011;8426;48.496;9.098;2023-03-14T13:51:27;1.05;;;0.57;;
16624;SDS011;8426;48.496;9.098;2023-03-14T13:56:42;1.35;;;0.50;;
16624;SDS011;8426;48.496;9.098;2023-03-14T14:07:10;0.68;;;0.50;;
16624;SDS011;8426;48.496;9.098;2023-03-14T14:12:22;0.95;;;0.40;;
16624;SDS011;8426;48.496;9.098;2023-03-14T14:17:31;2.88;;;0.52;;
16624;SDS011;8426;48.496;9.098;2023-03-14T14:22:41;3.40;;;0.50;;
16624;SDS011;8426;48.496;9.098;2023-03-14T14:27:47;9.13;;;0.70;;
16624;SDS011;8426;48.496;9.098;2023-03-14T14:32:52;1.52;;;0.52;;
16624;SDS011;8426;48.496;9.098;2023-03-14T14:38:01;0.68;;;0.40;;
16624;SDS011;8426;48.496;9.098;2023-03-14T14:43:15;1.45;;;0.45;;
16624;SDS011;8426;48.496;9.098;2023-03-14T14:48:24;0.75;;;0.50;;
16624;SDS011;8426;48.496;9.098;2023-03-14T14:53:37;2.60;;;0.93;;
16624;SDS011;8426;48.496;9.098;2023-03-14T14:58:44;2.25;;;0.70;;
16624;SDS011;8426;48.496;9.098;2023-03-14T15:03:51;1.67;;;0.60;;
16624;SDS011;8426;48.496;9.098;2023-03-14T15:08:57;3.70;;;0.43;;
16624;SDS011;8426;48.496;9.098;2023-03-14T15:14:00;1.15;;;0.38;;
16624;SDS011;8426;48.496;9.098;2023-03-14T15:19:08;1.65;;;0.70;;
16624;SDS011;8426;48.496;9.098;2023-03-14T15:24:26;4.47;;;0.40;;
16624;SDS011;8426;48.496;9.098;2023-03-14T15:29:30;4.13;;;0.60;;
16624;SDS011;8426;48.496;9.098;2023-03-14T15:34:33;1.23;;;0.50;;
16624;SDS011;8426;48.496;9.098;2023-03-14T15:39:41;1.33;;;0.50;;
16624;SDS011;8426;48.496;9.098;2023-03-14T15:44:46;2.47;;;0.68;;
16624;SDS011;8426;48.496;9.098;2023-03-14T15:49:50;4.18;;;0.68;;
16624;SDS011;8426;48.496;9.098;2023-03-14T15:54:56;0.55;;;0.30;;
16624;SDS011;8426;48.496;9.098;2023-03-14T16:00:00;1.55;;;0.30;;
16624;SDS011;8426;48.496;9.098;2023-03-14T16:05:05;1.98;;;1.05;;
16624;SDS011;8426;48.496;9.098;2023-03-14T16:10:13;1.05;;;0.40;;
16624;SDS011;8426;48.496;9.098;2023-03-14T16:15:17;1.38;;;0.50;;
16624;SDS011;8426;48.496;9.098;2023-03-14T16:20:21;4.50;;;0.67;;
16624;SDS011;8426;48.496;9.098;2023-03-14T16:25:30;2.72;;;0.50;;
16624;SDS011;8426;48.496;9.098;2023-03-14T16:30:34;4.00;;;0.40;;
16624;SDS011;8426;48.496;9.098;2023-03-14T16:35:39;0.75;;;0.40;;
16624;SDS011;8426;48.496;9.098;2023-03-14T16:40:44;6.47;;;0.70;;
16624;SDS011;8426;48.496;9.098;2023-03-14T16:45:59;2.67;;;0.55;;
16624;SDS011;8426;48.496;9.098;2023-03-14T16:51:04;3.53;;;0.70;;
16624;SDS011;8426;48.496;9.098;2023-03-14T16:56:08;6.35;;;0.98;;
16624;SDS011;8426;48.496;9.098;2023-03-14T17:01:13;5.60;;;0.93;;
16624;SDS011;8426;48.496;9.098;2023-03-14T17:06:20;1.70;;;0.60;;
16624;SDS011;8426;48.496;9.098;2023-03-14T17:11:26;1.05;;;0.60;;
16624;SDS011;8426;48.496;9.098;2023-03-14T17:16:31;1.20;;;0.73;;
16624;SDS011;8426;48.496;9.098;2023-03-14T17:21:36;2.20;;;1.00;;
16624;SDS011;8426;48.496;9.098;2023-03-14T17:26:40;7.13;;;1.67;;
16624;SDS011;8426;48.496;9.098;2023-03-14T17:31:44;4.05;;;0.80;;
16624;SDS011;8426;48.496;9.098;2023-03-14T17:36:47;5.80;;;1.13;;
16624;SDS011;8426;48.496;9.098;2023-03-14T17:41:55;5.93;;;1.00;;
16624;SDS011;8426;48.496;9.098;2023-03-14T17:46:58;4.10;;;0.90;;
16624;SDS011;8426;48.496;9.098;2023-03-14T17:52:02;2.25;;;0.75;;
16624;SDS011;8426;48.496;9.098;2023-03-14T17:57:10;2.78;;;1.13;;
16624;SDS011;8426;48.496;9.098;2023-03-14T18:02:14;2.42;;;0.90;;
16624;SDS011;8426;48.496;9.098;2023-03-14T18:07:18;2.78;;;0.70;;
16624;SDS011;8426;48.496;9.098;2023-03-14T18:12:23;2.03;;;0.95;;
16624;SDS011;8426;48.496;9.098;2023-03-14T18:17:28;2.30;;;1.13;;
16624;SDS011;8426;48.496;9.098;2023-03-14T18:22:31;2.20;;;1.00;;
16624;SDS011;8426;48.496;9.098;2023-03-14T18:27:38;3.17;;;1.10;;
16624;SDS011;8426;48.496;9.098;2023-03-14T18:32:41;2.70;;;0.80;;
16624;SDS011;8426;48.496;9.098;2023-03-14T18:37:45;3.35;;;1.05;;
16624;SDS011;8426;48.496;9.098;2023-03-14T18:42:49;5.25;;;0.88;;
16624;SDS011;8426;48.496;9.098;2023-03-14T18:47:53;5.03;;;1.02;;
16624;SDS011;8426;48.496;9.098;2023-03-14T18:52:58;1.50;;;0.50;;
16624;SDS011;8426;48.496;9.098;2023-03-14T18:58:07;4.53;;;0.80;;
16624;SDS011;8426;48.496;9.098;2023-03-14T19:03:11;2.83;;;0.70;;
16624;SDS011;8426;48.496;9.098;2023-03-14T19:08:15;2.45;;;0.88;;
16624;SDS011;8426;48.496;9.098;2023-03-14T19:13:24;3.30;;;1.10;;
16624;SDS011;8426;48.496;9.098;2023-03-14T19:18:28;1.83;;;0.80;;
16624;SDS011;8426;48.496;9.098;2023-03-14T19:23:33;1.77;;;0.77;;
16624;SDS011;8426;48.496;9.098;2023-03-14T19:28:38;3.00;;;1.00;;
16624;SDS011;8426;48.496;9.098;2023-03-14T19:33:42;1.95;;;1.20;;
16624;SDS011;8426;48.496;9.098;2023-03-14T19:38:48;3.07;;;1.00;;
16624;SDS011;8426;48.496;9.098;2023-03-14T19:43:53;2.17;;;0.93;;
16624;SDS011;8426;48.496;9.098;2023-03-14T19:48:56;1.67;;;0.80;;
16624;SDS011;8426;48.496;9.098;2023-03-14T19:54:00;3.13;;;1.00;;
16624;SDS011;8426;48.496;9.098;2023-03-14T19:59:07;3.47;;;1.20;;
16624;SDS011;8426;48.496;9.098;2023-03-14T20:04:10;4.22;;;1.13;;
16624;SDS011;8426;48.496;9.098;2023-03-14T20:09:15;2.97;;;0.80;;
16624;SDS011;8426;48.496;9.098;2023-03-14T20:14:20;5.60;;;1.17;;
16624;SDS011;8426;48.496;9.098;2023-03-14T20:19:23;4.55;;;0.90;;
16624;SDS011;8426;48.496;9.098;2023-03-14T20:24:28;1.60;;;0.97;;
16624;SDS011;8426;48.496;9.098;2023-03-14T20:29:39;3.30;;;1.07;;
16624;SDS011;8426;48.496;9.098;2023-03-14T20:34:44;6.70;;;1.47;;
16624;SDS011;8426;48.496;9.098;2023-03-14T20:39:48;3.10;;;1.13;;
16624;SDS011;8426;48.496;9.098;2023-03-14T20:44:53;5.93;;;1.10;;
16624;SDS011;8426;48.496;9.098;2023-03-14T20:49:56;4.28;;;1.08;;
16624;SDS011;8426;48.496;9.098;2023-03-14T20:55:02;3.23;;;1.10;;
16624;SDS011;8426;48.496;9.098;2023-03-14T21:00:09;4.30;;;1.00;;
16624;SDS011;8426;48.496;9.098;2023-03-14T21:05:14;3.92;;;0.98;;
16624;SDS011;8426;48.496;9.098;2023-03-14T21:10:18;6.85;;;1.10;;
16624;SDS011;8426;48.496;9.098;2023-03-14T21:15:23;7.20;;;1.17;;
16624;SDS011;8426;48.496;9.098;2023-03-14T21:20:30;4.90;;;1.10;;
16624;SDS011;8426;48.496;9.098;2023-03-14T21:25:43;1.10;;;1.00;;
16624;SDS011;8426;48.496;9.098;2023-03-14T21:30:48;1.87;;;1.20;;
16624;SDS011;8426;48.496;9.098;2023-03-14T21:35:51;2.17;;;1.13;;
16624;SDS011;8426;48.496;9.098;2023-03-14T21:40:55;1.92;;;0.88;;
16624;SDS011;8426;48.496;9.098;2023-03-14T21:46:02;2.67;;;1.00;;
16624;SDS011;8426;48.496;9.098;2023-03-14T21:51:06;1.07;;;0.60;;
16624;SDS011;8426;48.496;9.098;2023-03-14T21:56:09;0.77;;;0.70;;
16624;SDS011;8426;48.496;9.098;2023-03-14T22:01:16;2.67;;;0.70;;
16624;SDS011;8426;48.496;9.098;2023-03-14T22:06:20;1.67;;;0.67;;
16624;SDS011;8426;48.496;9.098;2023-03-14T22:11:24;1.87;;;0.87;;
16624;SDS011;8426;48.496;9.098;2023-03-14T22:16:29;1.93;;;0.77;;
16624;SDS011;8426;48.496;9.098;2023-03-14T22:21:32;1.00;;;0.60;;
16624;SDS011;8426;48.496;9.098;2023-03-14T22:26:37;2.77;;;0.90;;
16624;SDS011;8426;48.496;9.098;2023-03-14T22:31:42;1.37;;;0.70;;
16624;SDS011;8426;48.496;9.098;2023-03-14T22:36:46;6.30;;;1.20;;
16624;SDS011;8426;48.496;9.098;2023-03-14T22:41:49;2.43;;;0.83;;
16624;SDS011;8426;48.496;9.098;2023-03-14T22:46:54;2.77;;;1.00;;
16624;SDS011;8426;48.496;9.098;2023-03-14T22:51:57;3.53;;;0.93;;
16624;SDS011;8426;48.496;9.098;2023-03-14T22:57:01;2.67;;;0.97;;
16624;SDS011;8426;48.496;9.098;2023-03-14T23:02:07;2.10;;;1.00;;
16624;SDS011;8426;48.496;9.098;2023-03-14T23:07:10;2.67;;;1.00;;
16624;SDS011;8426;48.496;9.098;2023-03-14T23:12:14;0.93;;;0.50;;
16624;SDS011;8426;48.496;9.098;2023-03-14T23:17:19;0.47;;;0.47;;
16624;SDS011;8426;48.496;9.098;2023-03-14T23:22:26;0.80;;;0.70;;
16624;SDS011;8426;48.496;9.098;2023-03-14T23:27:34;1.00;;;0.60;;
16624;SDS011;8426;48.496;9.098;2023-03-14T23:32:39;0.83;;;0.60;;
16624;SDS011;8426;48.496;9.098;2023-03-14T23:37:43;3.23;;;0.90;;
16624;SDS011;8426;48.496;9.098;2023-03-14T23:42:49;2.87;;;0.80;;
16624;SDS011;8426;48.496;9.098;2023-03-14T23:47:53;1.27;;;0.87;;
16624;SDS011;8426;48.496;9.098;2023-03-14T23:52:58;3.47;;;0.97;;
16624;SDS011;8426;48.496;9.098;2023-03-14T23:58:02;1.47;;;1.13;;
